sensor_id;sensor_type;location;lat;lon;timestamp;P1;durP1;ratioP1;P2;durP2;ratioP2
17915;SDS011;9083;49.156;8.982;2023-10-19T00:00:46;21.20;;;12.40;;
17915;SDS011;9083;49.156;8.982;2023-10-19T00:03:16;20.53;;;12.73;;
17915;SDS011;9083;49.156;8.982;2023-10-19T00:05:42;18.17;;;12.03;;
17915;SDS011;9083;49.156;8.982;2023-10-19T00:08:08;21.80;;;13.33;;
17915;SDS011;9083;49.156;8.982;2023-10-19T00:10:40;21.10;;;12.43;;
17915;SDS011;9083;49.156;8.982;2023-10-19T00:13:08;20.60;;;13.27;;
17915;SDS011;9083;49.156;8.982;2023-10-19T00:15:36;22.80;;;12.27;;
17915;SDS011;9083;49.156;8.982;2023-10-19T00:18:05;20.23;;;13.47;;
17915;SDS011;9083;49.156;8.982;2023-10-19T00:20:47;20.77;;;13.07;;
17915;SDS011;9083;49.156;8.982;2023-10-19T00:23:17;18.77;;;11.87;;
17915;SDS011;9083;49.156;8.982;2023-10-19T00:25:47;19.67;;;12.70;;
17915;SDS011;9083;49.156;8.982;2023-10-19T00:28:16;18.37;;;11.93;;
17915;SDS011;9083;49.156;8.982;2023-10-19T00:30:42;18.57;;;12.00;;
17915;SDS011;9083;49.156;8.982;2023-10-19T00:33:10;19.40;;;11.77;;
17915;SDS011;9083;49.156;8.982;2023-10-19T00:35:42;24.57;;;12.57;;
17915;SDS011;9083;49.156;8.982;2023-10-19T00:38:13;19.30;;;12.03;;
17915;SDS011;9083;49.156;8.982;2023-10-19T00:41:04;20.93;;;12.57;;
17915;SDS011;9083;49.156;8.982;2023-10-19T00:43:32;17.80;;;11.53;;
17915;SDS011;9083;49.156;8.982;2023-10-19T00:45:59;17.60;;;11.97;;
17915;SDS011;9083;49.156;8.982;2023-10-19T00:48:33;19.23;;;10.70;;
17915;SDS011;9083;49.156;8.982;2023-10-19T00:51:00;21.60;;;12.10;;
17915;SDS011;9083;49.156;8.982;2023-10-19T00:53:36;17.70;;;11.33;;
17915;SDS011;9083;49.156;8.982;2023-10-19T00:56:04;14.63;;;10.47;;
17915;SDS011;9083;49.156;8.982;2023-10-19T00:58:34;19.20;;;11.67;;
17915;SDS011;9083;49.156;8.982;2023-10-19T01:01:02;16.47;;;11.37;;
17915;SDS011;9083;49.156;8.982;2023-10-19T01:03:30;15.30;;;11.20;;
17915;SDS011;9083;49.156;8.982;2023-10-19T01:06:01;16.77;;;10.77;;
17915;SDS011;9083;49.156;8.982;2023-10-19T01:08:30;18.63;;;10.97;;
17915;SDS011;9083;49.156;8.982;2023-10-19T01:11:07;18.40;;;11.00;;
17915;SDS011;9083;49.156;8.982;2023-10-19T01:13:36;17.67;;;11.13;;
17915;SDS011;9083;49.156;8.982;2023-10-19T01:16:02;16.93;;;12.00;;
17915;SDS011;9083;49.156;8.982;2023-10-19T01:18:29;19.00;;;11.43;;
17915;SDS011;9083;49.156;8.982;2023-10-19T01:20:57;16.77;;;11.50;;
17915;SDS011;9083;49.156;8.982;2023-10-19T01:23:28;18.80;;;11.63;;
17915;SDS011;9083;49.156;8.982;2023-10-19T01:25:56;18.73;;;11.47;;
17915;SDS011;9083;49.156;8.982;2023-10-19T01:28:26;16.27;;;11.97;;
17915;SDS011;9083;49.156;8.982;2023-10-19T01:31:06;18.60;;;11.97;;
17915;SDS011;9083;49.156;8.982;2023-10-19T01:33:33;18.53;;;12.23;;
17915;SDS011;9083;49.156;8.982;2023-10-19T01:36:00;15.73;;;10.23;;
17915;SDS011;9083;49.156;8.982;2023-10-19T01:38:41;19.03;;;11.80;;
17915;SDS011;9083;49.156;8.982;2023-10-19T01:41:06;17.07;;;11.23;;
17915;SDS011;9083;49.156;8.982;2023-10-19T01:43:38;16.93;;;10.73;;
17915;SDS011;9083;49.156;8.982;2023-10-19T01:46:05;17.13;;;11.30;;
17915;SDS011;9083;49.156;8.982;2023-10-19T01:48:36;17.20;;;10.57;;
17915;SDS011;9083;49.156;8.982;2023-10-19T01:51:04;18.27;;;11.07;;
17915;SDS011;9083;49.156;8.982;2023-10-19T01:53:30;22.83;;;11.27;;
17915;SDS011;9083;49.156;8.982;2023-10-19T01:55:57;17.33;;;10.93;;
17915;SDS011;9083;49.156;8.982;2023-10-19T01:58:23;19.53;;;12.13;;
17915;SDS011;9083;49.156;8.982;2023-10-19T02:00:50;18.50;;;11.33;;
17915;SDS011;9083;49.156;8.982;2023-10-19T02:03:15;18.43;;;11.80;;
17915;SDS011;9083;49.156;8.982;2023-10-19T02:05:42;17.40;;;11.87;;
17915;SDS011;9083;49.156;8.982;2023-10-19T02:08:08;16.47;;;11.70;;
17915;SDS011;9083;49.156;8.982;2023-10-19T02:10:35;16.83;;;11.33;;
17915;SDS011;9083;49.156;8.982;2023-10-19T02:13:02;19.57;;;12.50;;
17915;SDS011;9083;49.156;8.982;2023-10-19T02:15:32;19.90;;;11.43;;
17915;SDS011;9083;49.156;8.982;2023-10-19T02:17:57;17.63;;;11.73;;
17915;SDS011;9083;49.156;8.982;2023-10-19T02:20:26;18.47;;;10.93;;
17915;SDS011;9083;49.156;8.982;2023-10-19T02:22:52;21.33;;;12.13;;
17915;SDS011;9083;49.156;8.982;2023-10-19T02:25:19;17.53;;;10.43;;
17915;SDS011;9083;49.156;8.982;2023-10-19T02:27:45;18.13;;;11.60;;
17915;SDS011;9083;49.156;8.982;2023-10-19T02:30:13;22.60;;;12.90;;
17915;SDS011;9083;49.156;8.982;2023-10-19T02:32:39;23.37;;;11.70;;
17915;SDS011;9083;49.156;8.982;2023-10-19T02:35:07;21.23;;;12.60;;
17915;SDS011;9083;49.156;8.982;2023-10-19T02:37:34;19.70;;;12.47;;
17915;SDS011;9083;49.156;8.982;2023-10-19T02:40:03;17.00;;;10.57;;
17915;SDS011;9083;49.156;8.982;2023-10-19T02:42:37;15.93;;;10.50;;
17915;SDS011;9083;49.156;8.982;2023-10-19T02:45:04;19.27;;;11.77;;
17915;SDS011;9083;49.156;8.982;2023-10-19T02:47:31;17.97;;;10.90;;
17915;SDS011;9083;49.156;8.982;2023-10-19T02:49:57;18.60;;;10.93;;
17915;SDS011;9083;49.156;8.982;2023-10-19T02:52:23;18.93;;;11.47;;
17915;SDS011;9083;49.156;8.982;2023-10-19T02:54:49;16.13;;;11.23;;
17915;SDS011;9083;49.156;8.982;2023-10-19T02:57:15;18.70;;;12.20;;
17915;SDS011;9083;49.156;8.982;2023-10-19T02:59:42;18.83;;;12.63;;
17915;SDS011;9083;49.156;8.982;2023-10-19T03:02:07;16.03;;;10.63;;
17915;SDS011;9083;49.156;8.982;2023-10-19T03:04:43;19.23;;;10.10;;
17915;SDS011;9083;49.156;8.982;2023-10-19T03:07:10;19.40;;;10.40;;
17915;SDS011;9083;49.156;8.982;2023-10-19T03:09:37;17.60;;;11.37;;
17915;SDS011;9083;49.156;8.982;2023-10-19T03:12:02;16.90;;;11.23;;
17915;SDS011;9083;49.156;8.982;2023-10-19T03:14:29;14.60;;;9.97;;
17915;SDS011;9083;49.156;8.982;2023-10-19T03:16:56;14.80;;;9.40;;
17915;SDS011;9083;49.156;8.982;2023-10-19T03:19:23;15.67;;;11.17;;
17915;SDS011;9083;49.156;8.982;2023-10-19T03:21:51;17.80;;;12.07;;
17915;SDS011;9083;49.156;8.982;2023-10-19T03:24:18;19.70;;;13.20;;
17915;SDS011;9083;49.156;8.982;2023-10-19T03:26:48;19.17;;;12.97;;
17915;SDS011;9083;49.156;8.982;2023-10-19T03:29:15;19.07;;;12.43;;
17915;SDS011;9083;49.156;8.982;2023-10-19T03:31:41;20.33;;;12.67;;
17915;SDS011;9083;49.156;8.982;2023-10-19T03:34:10;17.53;;;11.37;;
17915;SDS011;9083;49.156;8.982;2023-10-19T03:36:37;19.47;;;13.33;;
17915;SDS011;9083;49.156;8.982;2023-10-19T03:39:04;20.33;;;13.23;;
17915;SDS011;9083;49.156;8.982;2023-10-19T03:41:36;22.83;;;12.90;;
17915;SDS011;9083;49.156;8.982;2023-10-19T03:44:04;15.73;;;11.07;;
17915;SDS011;9083;49.156;8.982;2023-10-19T03:46:30;16.43;;;11.10;;
17915;SDS011;9083;49.156;8.982;2023-10-19T03:49:00;17.13;;;11.13;;
17915;SDS011;9083;49.156;8.982;2023-10-19T03:51:29;14.03;;;10.10;;
17915;SDS011;9083;49.156;8.982;2023-10-19T03:54:18;17.50;;;10.03;;
17915;SDS011;9083;49.156;8.982;2023-10-19T03:56:48;23.73;;;13.10;;
17915;SDS011;9083;49.156;8.982;2023-10-19T03:59:15;17.43;;;11.90;;
17915;SDS011;9083;49.156;8.982;2023-10-19T04:01:42;15.73;;;11.13;;
17915;SDS011;9083;49.156;8.982;2023-10-19T04:04:09;18.70;;;11.07;;
17915;SDS011;9083;49.156;8.982;2023-10-19T04:06:35;20.53;;;11.60;;
17915;SDS011;9083;49.156;8.982;2023-10-19T04:09:02;16.47;;;11.10;;
17915;SDS011;9083;49.156;8.982;2023-10-19T04:11:32;16.87;;;10.80;;
17915;SDS011;9083;49.156;8.982;2023-10-19T04:14:10;18.70;;;10.87;;
17915;SDS011;9083;49.156;8.982;2023-10-19T04:16:38;13.80;;;10.13;;
17915;SDS011;9083;49.156;8.982;2023-10-19T04:19:08;15.27;;;10.67;;
17915;SDS011;9083;49.156;8.982;2023-10-19T04:21:35;15.40;;;10.30;;
17915;SDS011;9083;49.156;8.982;2023-10-19T04:24:04;16.03;;;10.57;;
17915;SDS011;9083;49.156;8.982;2023-10-19T04:26:33;13.73;;;10.17;;
17915;SDS011;9083;49.156;8.982;2023-10-19T04:29:02;19.67;;;11.13;;
17915;SDS011;9083;49.156;8.982;2023-10-19T04:31:34;16.97;;;10.73;;
17915;SDS011;9083;49.156;8.982;2023-10-19T04:34:02;15.93;;;10.07;;
17915;SDS011;9083;49.156;8.982;2023-10-19T04:36:32;17.63;;;10.80;;
17915;SDS011;9083;49.156;8.982;2023-10-19T04:38:59;16.73;;;10.00;;
17915;SDS011;9083;49.156;8.982;2023-10-19T04:41:25;15.47;;;10.17;;
17915;SDS011;9083;49.156;8.982;2023-10-19T04:43:54;18.80;;;10.20;;
17915;SDS011;9083;49.156;8.982;2023-10-19T04:46:23;14.57;;;10.43;;
17915;SDS011;9083;49.156;8.982;2023-10-19T04:48:49;19.10;;;10.63;;
17915;SDS011;9083;49.156;8.982;2023-10-19T04:51:16;17.37;;;10.67;;
17915;SDS011;9083;49.156;8.982;2023-10-19T04:53:42;16.60;;;10.30;;
17915;SDS011;9083;49.156;8.982;2023-10-19T04:56:09;13.60;;;9.40;;
17915;SDS011;9083;49.156;8.982;2023-10-19T04:58:38;13.40;;;9.13;;
17915;SDS011;9083;49.156;8.982;2023-10-19T05:01:06;13.47;;;9.37;;
17915;SDS011;9083;49.156;8.982;2023-10-19T05:03:32;17.67;;;10.23;;
17915;SDS011;9083;49.156;8.982;2023-10-19T05:05:59;16.47;;;10.50;;
17915;SDS011;9083;49.156;8.982;2023-10-19T05:08:26;15.23;;;9.80;;
17915;SDS011;9083;49.156;8.982;2023-10-19T05:10:53;20.53;;;10.67;;
17915;SDS011;9083;49.156;8.982;2023-10-19T05:13:20;23.47;;;13.47;;
17915;SDS011;9083;49.156;8.982;2023-10-19T05:15:46;25.90;;;12.97;;
17915;SDS011;9083;49.156;8.982;2023-10-19T05:18:14;20.50;;;11.23;;
17915;SDS011;9083;49.156;8.982;2023-10-19T05:20:40;17.97;;;11.00;;
17915;SDS011;9083;49.156;8.982;2023-10-19T05:23:07;18.83;;;10.57;;
17915;SDS011;9083;49.156;8.982;2023-10-19T05:25:34;16.50;;;10.63;;
17915;SDS011;9083;49.156;8.982;2023-10-19T05:28:02;17.17;;;10.27;;
17915;SDS011;9083;49.156;8.982;2023-10-19T05:30:28;15.43;;;10.43;;
17915;SDS011;9083;49.156;8.982;2023-10-19T05:32:55;19.90;;;10.80;;
17915;SDS011;9083;49.156;8.982;2023-10-19T05:35:22;22.67;;;11.70;;
17915;SDS011;9083;49.156;8.982;2023-10-19T05:37:51;16.73;;;9.83;;
17915;SDS011;9083;49.156;8.982;2023-10-19T05:40:17;16.77;;;10.00;;
17915;SDS011;9083;49.156;8.982;2023-10-19T05:42:44;16.60;;;9.30;;
17915;SDS011;9083;49.156;8.982;2023-10-19T05:45:11;14.00;;;8.93;;
17915;SDS011;9083;49.156;8.982;2023-10-19T05:47:38;20.03;;;9.80;;
17915;SDS011;9083;49.156;8.982;2023-10-19T05:50:05;19.10;;;10.27;;
17915;SDS011;9083;49.156;8.982;2023-10-19T05:52:33;17.67;;;10.60;;
17915;SDS011;9083;49.156;8.982;2023-10-19T05:54:59;15.93;;;9.60;;
17915;SDS011;9083;49.156;8.982;2023-10-19T05:57:25;15.93;;;9.90;;
17915;SDS011;9083;49.156;8.982;2023-10-19T05:59:51;20.57;;;11.30;;
17915;SDS011;9083;49.156;8.982;2023-10-19T06:02:18;20.57;;;9.00;;
17915;SDS011;9083;49.156;8.982;2023-10-19T06:04:44;14.00;;;9.30;;
17915;SDS011;9083;49.156;8.982;2023-10-19T06:07:10;13.27;;;9.00;;
17915;SDS011;9083;49.156;8.982;2023-10-19T06:09:38;15.30;;;9.63;;
17915;SDS011;9083;49.156;8.982;2023-10-19T06:12:05;12.77;;;9.17;;
17915;SDS011;9083;49.156;8.982;2023-10-19T06:14:34;14.60;;;11.17;;
17915;SDS011;9083;49.156;8.982;2023-10-19T06:17:00;15.00;;;9.57;;
17915;SDS011;9083;49.156;8.982;2023-10-19T06:19:27;17.07;;;9.43;;
17915;SDS011;9083;49.156;8.982;2023-10-19T06:21:53;12.90;;;8.90;;
17915;SDS011;9083;49.156;8.982;2023-10-19T06:24:20;12.23;;;8.43;;
17915;SDS011;9083;49.156;8.982;2023-10-19T06:26:47;12.70;;;9.10;;
17915;SDS011;9083;49.156;8.982;2023-10-19T06:29:13;9.00;;;7.30;;
17915;SDS011;9083;49.156;8.982;2023-10-19T06:31:40;10.30;;;8.13;;
17915;SDS011;9083;49.156;8.982;2023-10-19T06:34:06;12.27;;;8.93;;
17915;SDS011;9083;49.156;8.982;2023-10-19T06:36:32;18.77;;;9.27;;
17915;SDS011;9083;49.156;8.982;2023-10-19T06:38:59;11.67;;;8.30;;
17915;SDS011;9083;49.156;8.982;2023-10-19T06:41:31;12.23;;;7.70;;
17915;SDS011;9083;49.156;8.982;2023-10-19T06:43:58;11.27;;;8.33;;
17915;SDS011;9083;49.156;8.982;2023-10-19T06:46:26;11.97;;;8.67;;
17915;SDS011;9083;49.156;8.982;2023-10-19T06:48:52;13.60;;;9.07;;
17915;SDS011;9083;49.156;8.982;2023-10-19T06:51:21;17.17;;;10.47;;
17915;SDS011;9083;49.156;8.982;2023-10-19T06:53:48;17.30;;;10.97;;
17915;SDS011;9083;49.156;8.982;2023-10-19T06:56:15;18.67;;;11.53;;
17915;SDS011;9083;49.156;8.982;2023-10-19T06:58:41;20.93;;;11.80;;
17915;SDS011;9083;49.156;8.982;2023-10-19T07:01:09;20.47;;;12.00;;
17915;SDS011;9083;49.156;8.982;2023-10-19T07:03:36;25.20;;;14.00;;
17915;SDS011;9083;49.156;8.982;2023-10-19T07:06:02;23.33;;;12.00;;
17915;SDS011;9083;49.156;8.982;2023-10-19T07:08:29;22.87;;;11.43;;
17915;SDS011;9083;49.156;8.982;2023-10-19T07:10:55;17.90;;;11.27;;
17915;SDS011;9083;49.156;8.982;2023-10-19T07:13:21;18.93;;;10.67;;
17915;SDS011;9083;49.156;8.982;2023-10-19T07:15:47;18.93;;;11.00;;
17915;SDS011;9083;49.156;8.982;2023-10-19T07:18:16;19.23;;;11.33;;
17915;SDS011;9083;49.156;8.982;2023-10-19T07:20:42;19.37;;;11.60;;
17915;SDS011;9083;49.156;8.982;2023-10-19T07:23:08;21.20;;;11.97;;
17915;SDS011;9083;49.156;8.982;2023-10-19T07:25:43;24.00;;;13.43;;
17915;SDS011;9083;49.156;8.982;2023-10-19T07:28:10;29.87;;;14.37;;
17915;SDS011;9083;49.156;8.982;2023-10-19T07:30:37;30.10;;;13.47;;
17915;SDS011;9083;49.156;8.982;2023-10-19T07:33:04;22.43;;;11.17;;
17915;SDS011;9083;49.156;8.982;2023-10-19T07:35:35;16.90;;;10.40;;
17915;SDS011;9083;49.156;8.982;2023-10-19T07:38:02;18.10;;;11.37;;
17915;SDS011;9083;49.156;8.982;2023-10-19T07:40:29;16.70;;;10.80;;
17915;SDS011;9083;49.156;8.982;2023-10-19T07:42:55;14.47;;;10.13;;
17915;SDS011;9083;49.156;8.982;2023-10-19T07:45:22;22.00;;;11.43;;
17915;SDS011;9083;49.156;8.982;2023-10-19T07:47:50;18.13;;;11.13;;
17915;SDS011;9083;49.156;8.982;2023-10-19T07:50:17;21.00;;;11.03;;
17915;SDS011;9083;49.156;8.982;2023-10-19T07:52:45;18.13;;;11.33;;
17915;SDS011;9083;49.156;8.982;2023-10-19T07:55:12;16.03;;;10.13;;
17915;SDS011;9083;49.156;8.982;2023-10-19T07:57:39;19.17;;;11.30;;
17915;SDS011;9083;49.156;8.982;2023-10-19T08:00:06;16.73;;;10.47;;
17915;SDS011;9083;49.156;8.982;2023-10-19T08:02:33;15.37;;;10.27;;
17915;SDS011;9083;49.156;8.982;2023-10-19T08:05:01;16.40;;;10.87;;
17915;SDS011;9083;49.156;8.982;2023-10-19T08:07:27;23.47;;;11.80;;
17915;SDS011;9083;49.156;8.982;2023-10-19T08:09:55;16.77;;;11.43;;
17915;SDS011;9083;49.156;8.982;2023-10-19T08:12:23;21.97;;;12.03;;
17915;SDS011;9083;49.156;8.982;2023-10-19T08:14:51;21.07;;;11.13;;
17915;SDS011;9083;49.156;8.982;2023-10-19T08:17:17;20.97;;;12.30;;
17915;SDS011;9083;49.156;8.982;2023-10-19T08:19:44;23.97;;;12.37;;
17915;SDS011;9083;49.156;8.982;2023-10-19T08:22:10;21.73;;;12.33;;
17915;SDS011;9083;49.156;8.982;2023-10-19T08:24:39;19.63;;;12.33;;
17915;SDS011;9083;49.156;8.982;2023-10-19T08:27:09;20.23;;;12.73;;
17915;SDS011;9083;49.156;8.982;2023-10-19T08:29:36;17.33;;;11.90;;
17915;SDS011;9083;49.156;8.982;2023-10-19T08:32:02;21.20;;;11.90;;
17915;SDS011;9083;49.156;8.982;2023-10-19T08:34:28;17.37;;;10.63;;
17915;SDS011;9083;49.156;8.982;2023-10-19T08:36:55;19.70;;;11.93;;
17915;SDS011;9083;49.156;8.982;2023-10-19T08:39:21;21.43;;;11.60;;
17915;SDS011;9083;49.156;8.982;2023-10-19T08:41:49;22.07;;;12.07;;
17915;SDS011;9083;49.156;8.982;2023-10-19T08:44:19;18.77;;;11.67;;
17915;SDS011;9083;49.156;8.982;2023-10-19T08:46:46;19.03;;;11.83;;
17915;SDS011;9083;49.156;8.982;2023-10-19T08:49:13;22.37;;;11.10;;
17915;SDS011;9083;49.156;8.982;2023-10-19T08:51:40;18.30;;;12.60;;
17915;SDS011;9083;49.156;8.982;2023-10-19T08:54:09;20.30;;;13.03;;
17915;SDS011;9083;49.156;8.982;2023-10-19T08:56:36;22.87;;;13.13;;
17915;SDS011;9083;49.156;8.982;2023-10-19T08:59:02;21.17;;;12.30;;
17915;SDS011;9083;49.156;8.982;2023-10-19T09:01:30;19.77;;;12.70;;
17915;SDS011;9083;49.156;8.982;2023-10-19T09:03:56;21.43;;;13.57;;
17915;SDS011;9083;49.156;8.982;2023-10-19T09:06:23;19.20;;;12.80;;
17915;SDS011;9083;49.156;8.982;2023-10-19T09:08:49;21.13;;;13.27;;
17915;SDS011;9083;49.156;8.982;2023-10-19T09:11:16;16.90;;;11.43;;
17915;SDS011;9083;49.156;8.982;2023-10-19T09:13:45;19.57;;;10.67;;
17915;SDS011;9083;49.156;8.982;2023-10-19T09:16:12;15.23;;;9.57;;
17915;SDS011;9083;49.156;8.982;2023-10-19T09:18:40;13.83;;;9.80;;
17915;SDS011;9083;49.156;8.982;2023-10-19T09:21:06;15.63;;;8.77;;
17915;SDS011;9083;49.156;8.982;2023-10-19T09:23:36;14.63;;;8.87;;
17915;SDS011;9083;49.156;8.982;2023-10-19T09:26:03;13.17;;;8.23;;
17915;SDS011;9083;49.156;8.982;2023-10-19T09:28:30;11.27;;;7.40;;
17915;SDS011;9083;49.156;8.982;2023-10-19T09:30:58;11.13;;;6.43;;
17915;SDS011;9083;49.156;8.982;2023-10-19T09:33:25;11.10;;;7.43;;
17915;SDS011;9083;49.156;8.982;2023-10-19T09:35:55;14.93;;;7.20;;
17915;SDS011;9083;49.156;8.982;2023-10-19T09:38:26;14.73;;;6.90;;
17915;SDS011;9083;49.156;8.982;2023-10-19T09:40:52;9.30;;;6.43;;
17915;SDS011;9083;49.156;8.982;2023-10-19T09:43:21;8.97;;;7.23;;
17915;SDS011;9083;49.156;8.982;2023-10-19T09:45:50;11.60;;;7.10;;
17915;SDS011;9083;49.156;8.982;2023-10-19T09:48:19;11.47;;;7.70;;
17915;SDS011;9083;49.156;8.982;2023-10-19T09:50:48;9.90;;;7.40;;
17915;SDS011;9083;49.156;8.982;2023-10-19T09:53:17;9.87;;;6.97;;
17915;SDS011;9083;49.156;8.982;2023-10-19T09:55:44;10.47;;;6.53;;
17915;SDS011;9083;49.156;8.982;2023-10-19T09:58:11;8.27;;;6.63;;
17915;SDS011;9083;49.156;8.982;2023-10-19T10:00:42;13.03;;;6.63;;
17915;SDS011;9083;49.156;8.982;2023-10-19T10:03:20;9.87;;;6.50;;
17915;SDS011;9083;49.156;8.982;2023-10-19T10:06:07;10.77;;;7.53;;
17915;SDS011;9083;49.156;8.982;2023-10-19T10:08:36;11.43;;;7.50;;
17915;SDS011;9083;49.156;8.982;2023-10-19T10:11:18;16.40;;;7.33;;
17915;SDS011;9083;49.156;8.982;2023-10-19T10:13:46;12.43;;;7.40;;
17915;SDS011;9083;49.156;8.982;2023-10-19T10:16:15;9.70;;;6.50;;
17915;SDS011;9083;49.156;8.982;2023-10-19T10:18:42;10.47;;;7.20;;
17915;SDS011;9083;49.156;8.982;2023-10-19T10:21:10;17.10;;;7.70;;
17915;SDS011;9083;49.156;8.982;2023-10-19T10:23:41;15.97;;;6.20;;
17915;SDS011;9083;49.156;8.982;2023-10-19T10:26:09;11.40;;;6.43;;
17915;SDS011;9083;49.156;8.982;2023-10-19T10:28:35;8.30;;;5.87;;
17915;SDS011;9083;49.156;8.982;2023-10-19T10:31:08;6.90;;;5.47;;
17915;SDS011;9083;49.156;8.982;2023-10-19T10:33:38;9.83;;;5.57;;
17915;SDS011;9083;49.156;8.982;2023-10-19T10:36:05;8.47;;;5.30;;
17915;SDS011;9083;49.156;8.982;2023-10-19T10:38:33;7.37;;;5.03;;
17915;SDS011;9083;49.156;8.982;2023-10-19T10:41:01;9.10;;;5.37;;
17915;SDS011;9083;49.156;8.982;2023-10-19T10:43:27;12.10;;;4.67;;
17915;SDS011;9083;49.156;8.982;2023-10-19T10:46:02;5.13;;;4.63;;
17915;SDS011;9083;49.156;8.982;2023-10-19T10:48:28;7.03;;;4.67;;
17915;SDS011;9083;49.156;8.982;2023-10-19T10:50:55;6.20;;;4.47;;
17915;SDS011;9083;49.156;8.982;2023-10-19T10:53:22;8.37;;;4.80;;
17915;SDS011;9083;49.156;8.982;2023-10-19T10:55:49;7.93;;;4.70;;
17915;SDS011;9083;49.156;8.982;2023-10-19T10:58:18;7.47;;;4.10;;
17915;SDS011;9083;49.156;8.982;2023-10-19T11:00:45;6.33;;;4.20;;
17915;SDS011;9083;49.156;8.982;2023-10-19T11:03:12;50.63;;;6.10;;
17915;SDS011;9083;49.156;8.982;2023-10-19T11:05:39;11.67;;;4.13;;
17915;SDS011;9083;49.156;8.982;2023-10-19T11:08:06;16.37;;;4.23;;
17915;SDS011;9083;49.156;8.982;2023-10-19T11:10:33;20.07;;;4.80;;
17915;SDS011;9083;49.156;8.982;2023-10-19T11:13:00;5.13;;;3.97;;
17915;SDS011;9083;49.156;8.982;2023-10-19T11:15:28;13.03;;;4.60;;
17915;SDS011;9083;49.156;8.982;2023-10-19T11:17:54;8.73;;;3.97;;
17915;SDS011;9083;49.156;8.982;2023-10-19T11:20:21;8.43;;;4.03;;
17915;SDS011;9083;49.156;8.982;2023-10-19T11:22:48;5.57;;;3.73;;
17915;SDS011;9083;49.156;8.982;2023-10-19T11:25:18;8.47;;;4.30;;
17915;SDS011;9083;49.156;8.982;2023-10-19T11:27:45;6.53;;;3.93;;
17915;SDS011;9083;49.156;8.982;2023-10-19T11:30:12;7.90;;;4.13;;
17915;SDS011;9083;49.156;8.982;2023-10-19T11:32:40;7.03;;;4.53;;
17915;SDS011;9083;49.156;8.982;2023-10-19T11:35:06;6.33;;;4.03;;
17915;SDS011;9083;49.156;8.982;2023-10-19T11:37:44;8.77;;;4.50;;
17915;SDS011;9083;49.156;8.982;2023-10-19T11:40:11;6.87;;;4.43;;
17915;SDS011;9083;49.156;8.982;2023-10-19T11:42:37;8.47;;;4.53;;
17915;SDS011;9083;49.156;8.982;2023-10-19T11:45:05;5.47;;;4.00;;
17915;SDS011;9083;49.156;8.982;2023-10-19T11:47:31;6.00;;;4.33;;
17915;SDS011;9083;49.156;8.982;2023-10-19T11:49:59;10.03;;;4.93;;
17915;SDS011;9083;49.156;8.982;2023-10-19T11:52:25;8.07;;;5.73;;
17915;SDS011;9083;49.156;8.982;2023-10-19T11:54:53;9.50;;;5.90;;
17915;SDS011;9083;49.156;8.982;2023-10-19T11:57:19;10.43;;;5.40;;
17915;SDS011;9083;49.156;8.982;2023-10-19T11:59:44;15.03;;;5.80;;
17915;SDS011;9083;49.156;8.982;2023-10-19T12:02:10;8.63;;;5.47;;
17915;SDS011;9083;49.156;8.982;2023-10-19T12:04:37;7.83;;;5.07;;
17915;SDS011;9083;49.156;8.982;2023-10-19T12:07:05;7.63;;;4.97;;
17915;SDS011;9083;49.156;8.982;2023-10-19T12:09:31;7.47;;;5.33;;
17915;SDS011;9083;49.156;8.982;2023-10-19T12:11:58;9.70;;;5.50;;
17915;SDS011;9083;49.156;8.982;2023-10-19T12:14:24;8.77;;;5.10;;
17915;SDS011;9083;49.156;8.982;2023-10-19T12:16:50;8.37;;;5.17;;
17915;SDS011;9083;49.156;8.982;2023-10-19T12:19:16;4.97;;;4.47;;
17915;SDS011;9083;49.156;8.982;2023-10-19T12:21:44;9.70;;;5.17;;
17915;SDS011;9083;49.156;8.982;2023-10-19T12:24:11;10.93;;;4.90;;
17915;SDS011;9083;49.156;8.982;2023-10-19T12:26:40;11.53;;;5.33;;
17915;SDS011;9083;49.156;8.982;2023-10-19T12:29:07;9.37;;;5.20;;
17915;SDS011;9083;49.156;8.982;2023-10-19T12:31:36;7.80;;;4.93;;
17915;SDS011;9083;49.156;8.982;2023-10-19T12:34:04;7.90;;;5.47;;
17915;SDS011;9083;49.156;8.982;2023-10-19T12:36:31;11.27;;;5.20;;
17915;SDS011;9083;49.156;8.982;2023-10-19T12:38:58;7.43;;;5.30;;
17915;SDS011;9083;49.156;8.982;2023-10-19T12:41:27;8.53;;;4.47;;
17915;SDS011;9083;49.156;8.982;2023-10-19T12:43:53;9.20;;;5.07;;
17915;SDS011;9083;49.156;8.982;2023-10-19T12:46:22;5.17;;;4.27;;
17915;SDS011;9083;49.156;8.982;2023-10-19T12:48:49;5.47;;;3.80;;
17915;SDS011;9083;49.156;8.982;2023-10-19T12:51:16;5.17;;;3.80;;
17915;SDS011;9083;49.156;8.982;2023-10-19T12:53:48;6.00;;;4.30;;
17915;SDS011;9083;49.156;8.982;2023-10-19T12:56:16;10.10;;;4.97;;
17915;SDS011;9083;49.156;8.982;2023-10-19T12:58:44;8.07;;;5.60;;
17915;SDS011;9083;49.156;8.982;2023-10-19T13:01:10;5.30;;;4.20;;
17915;SDS011;9083;49.156;8.982;2023-10-19T13:03:41;7.50;;;5.07;;
17915;SDS011;9083;49.156;8.982;2023-10-19T13:06:10;8.33;;;4.87;;
17915;SDS011;9083;49.156;8.982;2023-10-19T13:08:37;5.60;;;4.10;;
17915;SDS011;9083;49.156;8.982;2023-10-19T13:11:05;5.23;;;4.10;;
17915;SDS011;9083;49.156;8.982;2023-10-19T13:13:32;7.37;;;4.70;;
17915;SDS011;9083;49.156;8.982;2023-10-19T13:16:02;6.47;;;4.30;;
17915;SDS011;9083;49.156;8.982;2023-10-19T13:18:30;5.57;;;4.63;;
17915;SDS011;9083;49.156;8.982;2023-10-19T13:20:59;6.27;;;4.13;;
17915;SDS011;9083;49.156;8.982;2023-10-19T13:23:28;4.43;;;4.07;;
17915;SDS011;9083;49.156;8.982;2023-10-19T13:25:55;7.33;;;4.47;;
17915;SDS011;9083;49.156;8.982;2023-10-19T13:28:33;5.80;;;4.27;;
17915;SDS011;9083;49.156;8.982;2023-10-19T13:31:00;4.87;;;4.00;;
17915;SDS011;9083;49.156;8.982;2023-10-19T13:33:28;6.13;;;4.30;;
17915;SDS011;9083;49.156;8.982;2023-10-19T13:35:54;7.33;;;4.27;;
17915;SDS011;9083;49.156;8.982;2023-10-19T13:38:20;6.17;;;4.13;;
17915;SDS011;9083;49.156;8.982;2023-10-19T13:40:47;5.80;;;3.90;;
17915;SDS011;9083;49.156;8.982;2023-10-19T13:43:15;5.83;;;4.00;;
17915;SDS011;9083;49.156;8.982;2023-10-19T13:45:43;3.73;;;3.43;;
17915;SDS011;9083;49.156;8.982;2023-10-19T13:48:10;4.40;;;4.00;;
17915;SDS011;9083;49.156;8.982;2023-10-19T13:50:40;4.63;;;3.60;;
17915;SDS011;9083;49.156;8.982;2023-10-19T13:53:07;7.17;;;4.40;;
17915;SDS011;9083;49.156;8.982;2023-10-19T13:55:35;4.00;;;3.53;;
17915;SDS011;9083;49.156;8.982;2023-10-19T13:58:01;3.90;;;3.60;;
17915;SDS011;9083;49.156;8.982;2023-10-19T14:00:28;5.40;;;3.53;;
17915;SDS011;9083;49.156;8.982;2023-10-19T14:03:00;4.80;;;3.07;;
17915;SDS011;9083;49.156;8.982;2023-10-19T14:05:29;10.97;;;4.20;;
17915;SDS011;9083;49.156;8.982;2023-10-19T14:07:57;4.30;;;3.37;;
17915;SDS011;9083;49.156;8.982;2023-10-19T14:10:24;4.30;;;3.70;;
17915;SDS011;9083;49.156;8.982;2023-10-19T14:12:50;5.30;;;3.70;;
17915;SDS011;9083;49.156;8.982;2023-10-19T14:15:17;10.43;;;3.47;;
17915;SDS011;9083;49.156;8.982;2023-10-19T14:17:43;7.80;;;3.40;;
17915;SDS011;9083;49.156;8.982;2023-10-19T14:20:11;5.37;;;3.00;;
17915;SDS011;9083;49.156;8.982;2023-10-19T14:22:42;4.67;;;3.63;;
17915;SDS011;9083;49.156;8.982;2023-10-19T14:25:10;3.20;;;3.00;;
17915;SDS011;9083;49.156;8.982;2023-10-19T14:27:41;6.20;;;3.47;;
17915;SDS011;9083;49.156;8.982;2023-10-19T14:30:08;5.57;;;4.33;;
17915;SDS011;9083;49.156;8.982;2023-10-19T14:32:36;9.43;;;4.87;;
17915;SDS011;9083;49.156;8.982;2023-10-19T14:35:03;11.07;;;5.50;;
17915;SDS011;9083;49.156;8.982;2023-10-19T14:37:31;8.90;;;6.87;;
17915;SDS011;9083;49.156;8.982;2023-10-19T14:39:57;11.33;;;6.27;;
17915;SDS011;9083;49.156;8.982;2023-10-19T14:42:25;9.37;;;5.13;;
17915;SDS011;9083;49.156;8.982;2023-10-19T14:44:55;11.20;;;5.03;;
17915;SDS011;9083;49.156;8.982;2023-10-19T14:47:22;9.87;;;4.63;;